< < Back
Terminal Aerodrome Forecast


Current Version              Previous Versions:   1  2  3  4  5  6  7  8  9  

Terminal Aerodrome Forecast

935
FTUS42 KGSP 270534
TAFGSP
TAF
KGSP 270534Z 2706/2806 22003KT 6SM BR VCSH BKN100
     FM270900 VRB02KT 5SM BR OVC020
      TEMPO 2709/2712 OVC008
     FM271300 26003KT P6SM VCSH BKN060 PROB30 2716/2719 4SM -TSRA
      OVC040CB
     FM271900 23007KT P6SM VCTS BKN050CB
     FM272200 24003KT P6SM VCSH BKN050 PROB30 2722/2804 4SM -TSRA
      OVC040CB=



Latest METAR

102
SAUS70 KWBC 270700 RRE
MTRGSP
METAR KGSP 270653Z AUTO 00000KT 5SM BR CLR 20/19 A3001 RMK AO2
RAB0556E09 SLP150 P0000 T02000194


USA.gov is the U.S. government's official web portal to all federal, state and local government web resources and services.